Time;durP1;ratioP1;P1;durP2;ratioP2;P2;SDS_P1;SDS_P2;PMS_P1;PMS_P2;Temp;Humidity;BMP_temperature;BMP_pressure;BME280_temperature;BME280_humidity;BME280_pressure;Samples;Min_cycle;Max_cycle;Signal;HPM_P1;HPM_P2
2022/04/04 00:02:14;;;;;;;;;;;0.20;99.90;;;;;;5114357;28;19908;-42
2022/04/04 00:04:40;;;;;;;;;;;0.20;99.90;;;;;;5114391;28;20314;-42
2022/04/04 00:07:06;;;;;;;;;;;0.30;99.90;;;;;;5114431;28;20266;-42
2022/04/04 00:09:31;;;;;;;;;;;0.20;99.90;;;;;;5114627;28;19912;-42
2022/04/04 00:11:57;;;;;;;;;;;0.20;99.90;;;;;;5114040;28;20396;-42
2022/04/04 00:14:23;;;;;;;;;;;0.20;99.90;;;;;;5114322;28;19914;-42
2022/04/04 00:16:49;;;;;;;;;;;0.20;99.90;;;;;;5113954;28;19943;-42
2022/04/04 00:19:15;;;;;;;;;;;0.20;99.90;;;;;;5114370;28;20286;-42
2022/04/04 00:21:41;;;;;;;;;;;0.20;99.90;;;;;;5114287;28;20035;-42
2022/04/04 00:24:07;;;;;;;;;;;0.10;99.90;;;;;;5113838;28;19912;-42
2022/04/04 00:26:32;;;;;;;;;;;0.10;99.90;;;;;;5114229;28;19953;-42
2022/04/04 00:28:58;;;;;;;;;;;0.10;99.90;;;;;;5114264;28;20304;-42
2022/04/04 00:31:23;;;;;;;;;;;0.10;99.90;;;;;;5114117;28;19960;-42
2022/04/04 00:33:49;;;;;;;;;;;0.00;99.90;;;;;;5113909;28;19953;-43
2022/04/04 00:36:15;;;;;;;;;;;0.10;99.90;;;;;;5112896;28;19915;-42
2022/04/04 00:38:40;;;;;;;;;;;0.00;99.90;;;;;;5114170;28;20354;-43
2022/04/04 00:41:10;;;;;;;;;;;0.10;99.90;;;;;;5114107;28;19961;-43
2022/04/04 00:43:35;;;;;;;;;;;0.10;99.90;;;;;;5114217;28;19912;-42
2022/04/04 00:46:01;;;;;;;;;;;0.00;99.90;;;;;;5113948;28;20402;-42
2022/04/04 00:48:27;;;;;;;;;;;0.00;99.90;;;;;;5113974;28;20245;-41
2022/04/04 00:50:52;;;;;;;;;;;0.00;99.90;;;;;;5114255;28;19915;-43
2022/04/04 00:53:18;;;;;;;;;;;0.00;99.90;;;;;;5113934;28;19908;-42
2022/04/04 00:55:44;;;;;;;;;;;0.00;99.90;;;;;;5113542;28;19915;-42
2022/04/04 00:58:09;;;;;;;;;;;-0.10;99.90;;;;;;5113796;28;19908;-43
2022/04/04 01:00:35;;;;;;;;;;;-0.20;99.90;;;;;;5113590;28;19919;-42
2022/04/04 01:03:01;;;;;;;;;;;-0.20;99.90;;;;;;5117003;28;19918;-42
2022/04/04 01:05:26;;;;;;;;;;;-0.30;99.90;;;;;;5117945;28;19912;-42
2022/04/04 01:07:52;;;;;;;;;;;-0.30;99.90;;;;;;5117411;28;19915;-42
2022/04/04 01:10:17;;;;;;;;;;;-0.30;99.90;;;;;;5118002;28;20365;-42
2022/04/04 01:12:54;;;;;;;;;;;-0.20;99.90;;;;;;5117290;28;19908;-41
2022/04/04 01:15:22;;;;;;;;;;;-0.30;99.90;;;;;;5117541;28;19907;-43
2022/04/04 01:17:48;;;;;;;;;;;-0.30;99.90;;;;;;5117510;28;19908;-42
2022/04/04 01:20:14;;;;;;;;;;;-0.30;99.90;;;;;;5117366;28;19914;-42
2022/04/04 01:22:40;;;;;;;;;;;-0.30;99.90;;;;;;5117387;28;19907;-41
2022/04/04 01:25:06;;;;;;;;;;;-0.40;99.90;;;;;;5115947;28;19919;-41
2022/04/04 01:27:32;;;;;;;;;;;-0.30;99.90;;;;;;5117321;28;19912;-43
2022/04/04 01:29:57;;;;;;;;;;;-0.30;99.90;;;;;;5117569;28;19977;-43
2022/04/04 01:32:23;;;;;;;;;;;-0.40;99.90;;;;;;5117076;28;19965;-42
2022/04/04 01:34:48;;;;;;;;;;;-0.40;99.90;;;;;;5117157;28;19916;-43
2022/04/04 01:37:14;;;;;;;;;;;-0.40;99.90;;;;;;5117081;28;20358;-42
2022/04/04 01:39:39;;;;;;;;;;;-0.40;99.90;;;;;;5116762;28;19914;-42
2022/04/04 01:42:05;;;;;;;;;;;-0.40;99.90;;;;;;5117045;28;19908;-42
2022/04/04 01:44:31;;;;;;;;;;;-0.30;99.90;;;;;;5116478;28;19916;-43
2022/04/04 01:46:56;;;;;;;;;;;-0.50;99.90;;;;;;5116885;28;19919;-43
2022/04/04 01:49:22;;;;;;;;;;;-0.50;99.90;;;;;;5115605;28;19915;-43
2022/04/04 01:51:47;;;;;;;;;;;-0.50;99.90;;;;;;5116571;28;20369;-42
2022/04/04 01:54:13;;;;;;;;;;;-0.50;99.90;;;;;;5116476;28;19999;-42
2022/04/04 01:56:41;;;;;;;;;;;-0.50;99.90;;;;;;5116754;28;20207;-42
2022/04/04 01:59:07;;;;;;;;;;;-0.60;99.90;;;;;;5116404;28;19920;-41
2022/04/04 02:01:34;;;;;;;;;;;-0.50;99.90;;;;;;5116518;28;19992;-42
2022/04/04 02:04:00;;;;;;;;;;;-0.60;99.90;;;;;;5116134;28;19911;-42
2022/04/04 02:06:26;;;;;;;;;;;-0.50;99.90;;;;;;5116018;28;19965;-42
2022/04/04 02:08:51;;;;;;;;;;;-0.50;99.90;;;;;;5116495;28;19912;-43
2022/04/04 02:11:18;;;;;;;;;;;-0.50;99.90;;;;;;5116368;28;20434;-42
2022/04/04 02:13:44;;;;;;;;;;;-0.60;99.90;;;;;;5115017;28;20289;-42
2022/04/04 02:16:10;;;;;;;;;;;-0.50;99.90;;;;;;5115125;28;19957;-42
2022/04/04 02:18:36;;;;;;;;;;;-0.50;99.90;;;;;;5116337;28;20314;-42
2022/04/04 02:21:02;;;;;;;;;;;-0.50;99.90;;;;;;5116197;28;19912;-42
2022/04/04 02:23:28;;;;;;;;;;;-0.50;99.90;;;;;;5115910;28;20002;-41
2022/04/04 02:25:57;;;;;;;;;;;-0.60;99.90;;;;;;5116064;28;20393;-42
2022/04/04 02:28:24;;;;;;;;;;;-0.60;99.90;;;;;;5116120;28;19915;-42
2022/04/04 02:30:50;;;;;;;;;;;-0.60;99.90;;;;;;5116118;28;19908;-42
2022/04/04 02:33:16;;;;;;;;;;;-0.60;99.90;;;;;;5115854;28;19930;-43
2022/04/04 02:35:42;;;;;;;;;;;-0.70;99.90;;;;;;5116280;28;19912;-42
2022/04/04 02:38:07;;;;;;;;;;;-0.70;99.90;;;;;;5115749;28;20308;-42
2022/04/04 02:40:33;;;;;;;;;;;-0.70;99.90;;;;;;5115603;28;19961;-42
2022/04/04 02:43:00;;;;;;;;;;;-0.70;99.90;;;;;;5115514;28;19908;-42
2022/04/04 02:45:26;;;;;;;;;;;-0.70;99.90;;;;;;5114489;28;19912;-42
2022/04/04 02:47:52;;;;;;;;;;;-0.70;99.90;;;;;;5115710;28;19970;-42
2022/04/04 02:50:17;;;;;;;;;;;-0.70;99.90;;;;;;5115596;28;19908;-42
2022/04/04 02:52:43;;;;;;;;;;;-0.70;99.90;;;;;;5115161;28;19907;-43
2022/04/04 02:57:52;;;;;;;;;;;-0.80;99.90;;;;;;5115443;28;19914;-42
2022/04/04 03:00:19;;;;;;;;;;;-0.80;99.90;;;;;;5115303;28;20002;-42
2022/04/04 03:02:45;;;;;;;;;;;-0.80;99.90;;;;;;5115396;28;19915;-43
2022/04/04 03:05:10;;;;;;;;;;;-0.80;99.90;;;;;;5114782;28;20006;-43
2022/04/04 03:07:36;;;;;;;;;;;-0.80;99.90;;;;;;5114294;28;19955;-43
2022/04/04 03:10:03;;;;;;;;;;;-0.90;99.90;;;;;;5115147;28;19915;-42
2022/04/04 03:12:29;;;;;;;;;;;-0.90;99.90;;;;;;5114878;28;19907;-43
2022/04/04 03:14:54;;;;;;;;;;;-0.90;99.90;;;;;;5115150;28;19958;-43
2022/04/04 03:17:19;;;;;;;;;;;-0.90;99.90;;;;;;5115105;28;19907;-42
2022/04/04 03:19:45;;;;;;;;;;;-0.90;99.90;;;;;;5114935;28;19977;-42
2022/04/04 03:22:10;;;;;;;;;;;-0.90;99.90;;;;;;5114576;28;20312;-42
2022/04/04 03:24:36;;;;;;;;;;;-0.90;99.90;;;;;;5114812;28;20006;-41
2022/04/04 03:27:01;;;;;;;;;;;-0.90;99.90;;;;;;5114725;28;20274;-41
2022/04/04 03:29:27;;;;;;;;;;;-0.90;99.90;;;;;;5114545;28;19912;-42
2022/04/04 03:31:53;;;;;;;;;;;-0.90;99.90;;;;;;5114612;28;19919;-42
2022/04/04 03:34:18;;;;;;;;;;;-0.90;99.90;;;;;;5113434;28;19914;-42
2022/04/04 03:36:44;;;;;;;;;;;-0.90;99.90;;;;;;5114537;28;19912;-42
2022/04/04 03:39:12;;;;;;;;;;;-0.90;99.90;;;;;;5114339;28;19990;-43
2022/04/04 03:41:38;;;;;;;;;;;-0.90;99.90;;;;;;5114606;28;19931;-42
2022/04/04 03:44:06;;;;;;;;;;;-0.90;99.90;;;;;;5114525;28;19912;-42
2022/04/04 03:46:32;;;;;;;;;;;-1.00;99.90;;;;;;5113230;28;19967;-42
2022/04/04 03:48:57;;;;;;;;;;;-1.00;99.90;;;;;;5114219;28;20010;-42
2022/04/04 03:51:23;;;;;;;;;;;-1.00;99.90;;;;;;5114172;28;19908;-43
2022/04/04 03:53:48;;;;;;;;;;;-1.00;99.90;;;;;;5114316;28;19907;-43
2022/04/04 03:56:14;;;;;;;;;;;-1.10;99.90;;;;;;5114466;28;19915;-42
2022/04/04 03:58:40;;;;;;;;;;;-1.10;99.90;;;;;;5114477;28;19961;-42
2022/04/04 04:01:06;;;;;;;;;;;-1.10;99.90;;;;;;5114452;28;19908;-42
2022/04/04 04:03:31;;;;;;;;;;;-1.10;99.90;;;;;;5113996;28;19928;-42
2022/04/04 04:06:11;;;;;;;;;;;-1.20;99.90;;;;;;5114364;28;19912;-42
2022/04/04 04:08:38;;;;;;;;;;;-1.10;99.90;;;;;;5114281;28;20002;-42
2022/04/04 04:11:03;;;;;;;;;;;-1.20;99.90;;;;;;5112888;28;19915;-43
2022/04/04 04:13:28;;;;;;;;;;;-1.10;99.90;;;;;;5114155;28;19958;-41
2022/04/04 04:15:54;;;;;;;;;;;-1.10;99.90;;;;;;5114032;28;19908;-42
2022/04/04 04:18:20;;;;;;;;;;;-1.10;99.90;;;;;;5114066;28;20002;-42
2022/04/04 04:20:46;;;;;;;;;;;-1.20;99.90;;;;;;5114175;28;19908;-42
2022/04/04 04:23:13;;;;;;;;;;;-1.20;99.90;;;;;;5113928;28;20386;-41
2022/04/04 04:25:38;;;;;;;;;;;-1.20;99.90;;;;;;5113897;28;20366;-42
2022/04/04 04:28:05;;;;;;;;;;;-1.20;99.90;;;;;;5114228;28;19915;-42
2022/04/04 04:30:31;;;;;;;;;;;-1.30;99.90;;;;;;5113808;28;19939;-43
2022/04/04 04:32:56;;;;;;;;;;;-1.30;99.90;;;;;;5114133;28;19973;-42
2022/04/04 04:35:22;;;;;;;;;;;-1.20;99.90;;;;;;5112741;28;19908;-41
2022/04/04 04:37:50;;;;;;;;;;;-1.20;99.90;;;;;;5116651;28;19960;-42
2022/04/04 04:40:15;;;;;;;;;;;-1.30;99.90;;;;;;5117685;28;20358;-43
2022/04/04 04:42:42;;;;;;;;;;;-1.30;99.90;;;;;;5118006;28;19918;-43
2022/04/04 04:45:07;;;;;;;;;;;-1.40;99.90;;;;;;5116459;28;20269;-42
2022/04/04 04:47:33;;;;;;;;;;;-1.50;99.90;;;;;;5117481;28;19912;-42
2022/04/04 04:49:59;;;;;;;;;;;-1.40;99.90;;;;;;5117835;28;19907;-42
2022/04/04 04:52:25;;;;;;;;;;;-1.40;99.90;;;;;;5117549;28;19915;-43
2022/04/04 04:54:50;;;;;;;;;;;-1.40;99.90;;;;;;5117344;28;19907;-42
2022/04/04 04:57:16;;;;;;;;;;;-1.30;99.90;;;;;;5116044;28;20060;-42
2022/04/04 04:59:41;;;;;;;;;;;-1.30;99.90;;;;;;5117128;28;19908;-42
2022/04/04 05:02:07;;;;;;;;;;;-1.30;99.90;;;;;;5117487;28;19907;-42
2022/04/04 05:04:32;;;;;;;;;;;-1.30;99.90;;;;;;5116981;28;20263;-42
2022/04/04 05:06:58;;;;;;;;;;;-1.20;99.90;;;;;;5117291;28;19959;-42
2022/04/04 05:09:23;;;;;;;;;;;-1.20;99.90;;;;;;5116932;28;20010;-43
2022/04/04 05:11:49;;;;;;;;;;;-1.00;99.90;;;;;;5117179;28;19939;-42
2022/04/04 05:14:17;;;;;;;;;;;-1.00;99.90;;;;;;5117011;28;19961;-43
2022/04/04 05:16:43;;;;;;;;;;;-0.90;99.90;;;;;;5115812;28;19908;-42
2022/04/04 05:19:09;;;;;;;;;;;-0.90;99.90;;;;;;5116999;28;20373;-43
2022/04/04 05:21:35;;;;;;;;;;;-0.90;99.90;;;;;;5115791;28;20351;-42
2022/04/04 05:24:01;;;;;;;;;;;-0.80;99.90;;;;;;5116837;28;19923;-42
2022/04/04 05:26:26;;;;;;;;;;;-0.70;99.90;;;;;;5116421;28;19912;-42
2022/04/04 05:28:52;;;;;;;;;;;-0.60;99.90;;;;;;5116463;28;19931;-42
2022/04/04 05:31:17;;;;;;;;;;;-0.50;99.90;;;;;;5116450;28;20033;-43
2022/04/04 05:33:43;;;;;;;;;;;-0.50;99.90;;;;;;5116852;28;19912;-43
2022/04/04 05:36:08;;;;;;;;;;;-0.50;99.90;;;;;;5116659;28;19915;-43
2022/04/04 05:38:34;;;;;;;;;;;-0.50;99.90;;;;;;5116586;28;20002;-43
2022/04/04 05:41:00;;;;;;;;;;;-0.50;99.90;;;;;;5115057;28;19908;-43
2022/04/04 05:43:26;;;;;;;;;;;-0.30;99.90;;;;;;5114626;28;20410;-43
2022/04/04 05:45:53;;;;;;;;;;;-0.20;99.90;;;;;;5114637;28;19969;-44
2022/04/04 05:48:18;;;;;;;;;;;-0.20;99.90;;;;;;5114614;28;20007;-43
2022/04/04 05:50:44;;;;;;;;;;;-0.30;99.90;;;;;;5116065;28;19908;-42
2022/04/04 05:53:10;;;;;;;;;;;-0.20;99.90;;;;;;5115822;28;19908;-43
2022/04/04 05:55:35;;;;;;;;;;;-0.10;99.90;;;;;;5114541;28;19908;-42
2022/04/04 05:58:01;;;;;;;;;;;0.00;99.90;;;;;;5115733;28;19915;-42
2022/04/04 06:00:26;;;;;;;;;;;0.10;99.90;;;;;;5115876;28;19914;-41
2022/04/04 06:02:52;;;;;;;;;;;0.20;99.90;;;;;;5116015;28;19914;-42
2022/04/04 06:05:17;;;;;;;;;;;0.20;99.90;;;;;;5115572;28;19911;-43
2022/04/04 06:07:43;;;;;;;;;;;0.40;99.90;;;;;;5115762;28;20357;-42
2022/04/04 06:10:09;;;;;;;;;;;0.30;99.90;;;;;;5115502;28;19908;-42
2022/04/04 06:12:38;;;;;;;;;;;0.30;99.90;;;;;;5115884;28;19981;-43
2022/04/04 06:15:04;;;;;;;;;;;0.40;99.90;;;;;;5113777;28;19974;-42
2022/04/04 06:17:30;;;;;;;;;;;0.50;99.90;;;;;;5113840;28;20342;-42
2022/04/04 06:19:55;;;;;;;;;;;0.50;99.90;;;;;;5115330;28;20056;-43
2022/04/04 06:22:22;;;;;;;;;;;0.70;99.90;;;;;;5115178;28;20281;-42
2022/04/04 06:24:48;;;;;;;;;;;0.70;99.90;;;;;;5115443;28;19912;-43
2022/04/04 06:27:15;;;;;;;;;;;0.80;99.90;;;;;;5115483;28;19934;-43
2022/04/04 06:29:41;;;;;;;;;;;0.90;99.90;;;;;;5115542;28;20394;-43
2022/04/04 06:32:07;;;;;;;;;;;1.10;99.90;;;;;;5115073;28;19926;-42
2022/04/04 06:34:32;;;;;;;;;;;1.10;99.90;;;;;;5114826;28;20289;-43
2022/04/04 06:36:58;;;;;;;;;;;1.00;99.90;;;;;;5115363;28;20259;-43
2022/04/04 06:39:23;;;;;;;;;;;1.00;99.90;;;;;;5115274;28;19969;-42
2022/04/04 06:41:50;;;;;;;;;;;1.10;99.90;;;;;;5115137;28;20006;-42
2022/04/04 06:44:16;;;;;;;;;;;1.30;99.90;;;;;;5114027;28;19912;-43
2022/04/04 06:46:41;;;;;;;;;;;1.40;99.90;;;;;;5113597;28;19935;-42
2022/04/04 06:49:07;;;;;;;;;;;1.60;99.90;;;;;;5115066;28;19920;-44
2022/04/04 06:51:33;;;;;;;;;;;1.60;99.90;;;;;;5114663;28;19919;-42
2022/04/04 06:54:07;;;;;;;;;;;1.40;99.90;;;;;;5115022;28;19908;-43
2022/04/04 06:56:34;;;;;;;;;;;1.50;99.90;;;;;;5114723;28;19934;-42
2022/04/04 06:59:00;;;;;;;;;;;1.50;99.90;;;;;;5113823;28;19908;-43
2022/04/04 07:01:25;;;;;;;;;;;1.40;99.90;;;;;;5114312;28;19915;-43
2022/04/04 07:03:51;;;;;;;;;;;1.50;99.90;;;;;;5114657;28;19960;-41
2022/04/04 07:06:16;;;;;;;;;;;1.40;99.90;;;;;;5114818;28;19919;-43
2022/04/04 07:08:43;;;;;;;;;;;1.40;99.90;;;;;;5114788;28;19915;-42
2022/04/04 07:11:10;;;;;;;;;;;1.50;99.90;;;;;;5114531;28;19915;-42
2022/04/04 07:13:36;;;;;;;;;;;1.60;99.90;;;;;;5114565;28;20093;-42
2022/04/04 07:16:01;;;;;;;;;;;1.60;99.90;;;;;;5114110;28;19912;-42
2022/04/04 07:18:27;;;;;;;;;;;1.60;99.90;;;;;;5114611;28;20273;-44
2022/04/04 07:20:52;;;;;;;;;;;1.50;99.90;;;;;;5114482;28;19972;-42
2022/04/04 07:23:18;;;;;;;;;;;1.60;99.90;;;;;;5113246;28;19930;-43
2022/04/04 07:25:43;;;;;;;;;;;1.70;99.90;;;;;;5114406;28;19962;-42
2022/04/04 07:28:09;;;;;;;;;;;2.00;99.90;;;;;;5114184;28;20365;-42
2022/04/04 07:30:34;;;;;;;;;;;2.10;99.90;;;;;;5112486;28;19961;-41
2022/04/04 07:33:03;;;;;;;;;;;2.20;99.90;;;;;;5114122;28;19920;-42
2022/04/04 07:35:29;;;;;;;;;;;2.40;99.90;;;;;;5113996;28;19908;-41
2022/04/04 07:37:54;;;;;;;;;;;2.60;99.90;;;;;;5113954;28;19967;-42
2022/04/04 07:40:20;;;;;;;;;;;2.80;99.90;;;;;;5114609;28;19994;-43
2022/04/04 07:42:46;;;;;;;;;;;2.80;99.90;;;;;;5113907;28;19955;-43
2022/04/04 07:45:13;;;;;;;;;;;2.90;99.90;;;;;;5112694;28;19916;-41
2022/04/04 07:47:39;;;;;;;;;;;2.80;99.90;;;;;;5113700;28;20263;-42
2022/04/04 07:50:06;;;;;;;;;;;2.80;99.90;;;;;;5113827;28;19908;-42
2022/04/04 07:52:31;;;;;;;;;;;2.70;99.90;;;;;;5113638;28;19912;-42
2022/04/04 07:54:57;;;;;;;;;;;2.50;99.90;;;;;;5113961;28;19914;-42
2022/04/04 07:57:22;;;;;;;;;;;2.30;99.00;;;;;;5113760;28;19930;-42
2022/04/04 07:59:50;;;;;;;;;;;2.70;99.90;;;;;;5113610;28;19969;-43
2022/04/04 08:02:16;;;;;;;;;;;2.80;99.90;;;;;;5113872;28;19908;-42
2022/04/04 08:04:42;;;;;;;;;;;3.00;98.30;;;;;;5112611;28;19918;-41
2022/04/04 08:07:07;;;;;;;;;;;3.20;99.50;;;;;;5113862;28;20011;-43
2022/04/04 08:09:33;;;;;;;;;;;3.30;97.50;;;;;;5113157;28;19919;-43
2022/04/04 08:11:58;;;;;;;;;;;2.60;98.10;;;;;;5112367;28;19908;-41
2022/04/04 08:14:24;;;;;;;;;;;2.90;99.90;;;;;;5113550;28;20023;-42
2022/04/04 08:16:50;;;;;;;;;;;3.20;99.90;;;;;;5113789;28;19908;-42
2022/04/04 08:19:16;;;;;;;;;;;3.70;99.90;;;;;;5113675;28;19915;-41
2022/04/04 08:21:44;;;;;;;;;;;3.90;98.50;;;;;;5113826;28;19912;-43
2022/04/04 08:24:10;;;;;;;;;;;3.90;97.40;;;;;;5113619;28;19919;-42
2022/04/04 08:26:36;;;;;;;;;;;3.80;98.80;;;;;;5113383;28;19919;-42
2022/04/04 08:29:02;;;;;;;;;;;3.90;98.90;;;;;;5113284;28;19908;-42
2022/04/04 08:31:27;;;;;;;;;;;4.20;99.70;;;;;;5113290;28;19920;-41
2022/04/04 08:33:53;;;;;;;;;;;4.00;97.80;;;;;;5113562;28;19965;-43
2022/04/04 08:36:19;;;;;;;;;;;3.90;98.50;;;;;;5113552;28;20350;-42
2022/04/04 08:38:44;;;;;;;;;;;3.70;96.30;;;;;;5112175;28;19915;-42
2022/04/04 08:41:10;;;;;;;;;;;3.80;96.20;;;;;;5113533;28;19908;-43
2022/04/04 08:43:37;;;;;;;;;;;3.90;96.30;;;;;;5113850;28;19998;-43
2022/04/04 08:46:05;;;;;;;;;;;3.80;96.40;;;;;;5113296;28;20371;-43
2022/04/04 08:48:32;;;;;;;;;;;3.60;96.50;;;;;;5113179;28;19960;-43
2022/04/04 08:50:57;;;;;;;;;;;3.80;96.20;;;;;;5113704;28;19915;-42
2022/04/04 08:53:23;;;;;;;;;;;3.70;97.40;;;;;;5113427;28;19908;-42
2022/04/04 08:55:48;;;;;;;;;;;3.90;96.50;;;;;;5113252;28;20286;-44
2022/04/04 08:58:15;;;;;;;;;;;4.20;98.30;;;;;;5112887;28;19916;-43
2022/04/04 09:00:41;;;;;;;;;;;4.70;98.50;;;;;;5113491;28;19915;-43
2022/04/04 09:03:08;;;;;;;;;;;4.20;95.70;;;;;;5113334;28;19908;-43
2022/04/04 09:05:34;;;;;;;;;;;4.10;96.70;;;;;;5113074;28;19955;-43
2022/04/04 09:08:01;;;;;;;;;;;4.10;95.90;;;;;;5111739;28;19911;-44
2022/04/04 09:10:31;;;;;;;;;;;4.20;96.40;;;;;;5113151;28;19961;-43
2022/04/04 09:13:04;;;;;;;;;;;4.20;96.90;;;;;;5113449;28;19908;-42
2022/04/04 09:15:50;;;;;;;;;;;4.50;97.00;;;;;;5111866;28;19908;-41
2022/04/04 09:18:15;;;;;;;;;;;4.60;97.30;;;;;;5112201;28;19908;-43
2022/04/04 09:20:51;;;;;;;;;;;4.60;95.20;;;;;;5113208;28;20404;-42
2022/04/04 09:23:17;;;;;;;;;;;4.40;94.70;;;;;;5114948;28;19991;-43
2022/04/04 09:25:42;;;;;;;;;;;4.20;97.00;;;;;;5116499;28;20003;-44
2022/04/04 09:28:18;;;;;;;;;;;4.50;97.10;;;;;;5116699;28;19939;-42
2022/04/04 09:31:03;;;;;;;;;;;4.80;97.40;;;;;;5116370;28;19908;-43
2022/04/04 09:33:40;;;;;;;;;;;5.20;98.60;;;;;;5116761;28;19930;-43
2022/04/04 09:36:07;;;;;;;;;;;5.50;98.90;;;;;;5116965;28;19915;-42
2022/04/04 09:38:35;;;;;;;;;;;5.70;98.90;;;;;;5116580;28;20003;-41
2022/04/04 09:41:17;;;;;;;;;;;5.70;96.90;;;;;;5116439;28;20289;-42
2022/04/04 09:43:53;;;;;;;;;;;5.80;97.60;;;;;;5116034;28;19912;-44
2022/04/04 09:46:19;;;;;;;;;;;5.70;95.20;;;;;;5116220;28;19919;-42
2022/04/04 09:49:04;;;;;;;;;;;5.80;95.20;;;;;;5115056;28;19908;-43
2022/04/04 09:51:38;;;;;;;;;;;5.10;96.60;;;;;;5116236;28;19951;-43
2022/04/04 09:54:05;;;;;;;;;;;5.60;99.00;;;;;;5116288;28;19950;-42
2022/04/04 09:56:31;;;;;;;;;;;5.90;99.30;;;;;;5116013;28;19911;-43
2022/04/04 09:58:58;;;;;;;;;;;6.10;99.70;;;;;;5115979;28;19969;-43
2022/04/04 10:01:24;;;;;;;;;;;6.20;95.40;;;;;;5115786;28;19908;-42
2022/04/04 10:03:51;;;;;;;;;;;6.00;96.30;;;;;;5114474;28;19919;-42
2022/04/04 10:06:18;;;;;;;;;;;5.70;97.00;;;;;;5116035;28;19976;-43
2022/04/04 10:08:44;;;;;;;;;;;5.90;97.50;;;;;;5113918;28;19908;-42
2022/04/04 10:11:09;;;;;;;;;;;6.00;98.60;;;;;;5115539;28;20048;-43
2022/04/04 10:13:35;;;;;;;;;;;6.30;96.50;;;;;;5115926;28;19915;-44
2022/04/04 10:16:01;;;;;;;;;;;6.20;95.50;;;;;;5114685;28;19912;-45
2022/04/04 10:18:27;;;;;;;;;;;6.20;97.40;;;;;;5115856;28;19914;-42
2022/04/04 10:20:53;;;;;;;;;;;6.30;96.10;;;;;;5115665;28;19994;-43
2022/04/04 10:23:19;;;;;;;;;;;5.80;97.50;;;;;;5115933;28;20066;-44
2022/04/04 10:25:45;;;;;;;;;;;6.30;98.20;;;;;;5115892;28;19916;-42
2022/04/04 10:28:24;;;;;;;;;;;6.70;95.80;;;;;;5115207;28;19908;-42
2022/04/04 10:30:50;;;;;;;;;;;6.30;95.60;;;;;;5114069;28;20254;-42
2022/04/04 10:33:20;;;;;;;;;;;5.90;96.10;;;;;;5114177;28;19908;-43
2022/04/04 10:35:59;;;;;;;;;;;5.80;96.30;;;;;;5114540;28;19914;-42
2022/04/04 10:38:31;;;;;;;;;;;5.80;96.20;;;;;;5114835;28;19922;-43
2022/04/04 10:40:57;;;;;;;;;;;5.70;97.00;;;;;;5115556;28;19908;-43
2022/04/04 10:43:23;;;;;;;;;;;6.00;96.60;;;;;;5115068;28;19939;-43
2022/04/04 10:45:52;;;;;;;;;;;5.90;97.30;;;;;;5115376;28;19912;-43
2022/04/04 10:48:18;;;;;;;;;;;5.80;96.50;;;;;;5114348;28;19908;-41
2022/04/04 10:50:44;;;;;;;;;;;6.20;97.00;;;;;;5115357;28;19908;-43
2022/04/04 10:53:10;;;;;;;;;;;6.50;98.00;;;;;;5115051;28;20113;-43
2022/04/04 10:55:36;;;;;;;;;;;6.60;97.40;;;;;;5113370;28;19919;-43
2022/04/04 10:58:14;;;;;;;;;;;6.40;96.10;;;;;;5115034;28;19915;-43
2022/04/04 11:00:58;;;;;;;;;;;6.40;96.90;;;;;;5114026;28;20072;-43
2022/04/04 11:03:27;;;;;;;;;;;6.20;96.40;;;;;;5114890;28;19908;-42
2022/04/04 11:08:58;;;;;;;;;;;6.00;96.80;;;;;;5115050;28;19915;-45
2022/04/04 11:11:40;;;;;;;;;;;6.40;98.30;;;;;;5115100;28;19908;-43
2022/04/04 11:14:06;;;;;;;;;;;6.80;97.30;;;;;;5114074;28;20011;-42
2022/04/04 11:16:50;;;;;;;;;;;6.80;97.10;;;;;;5114186;28;19963;-43
2022/04/04 11:19:18;;;;;;;;;;;6.90;97.20;;;;;;5114273;28;19915;-41
2022/04/04 11:21:44;;;;;;;;;;;7.00;97.20;;;;;;5113477;28;19912;-42
2022/04/04 11:24:10;;;;;;;;;;;7.00;96.50;;;;;;5114549;28;19915;-44
2022/04/04 11:26:35;;;;;;;;;;;6.60;96.30;;;;;;5114322;28;19912;-42
2022/04/04 11:29:02;;;;;;;;;;;6.40;97.40;;;;;;5114126;28;19918;-44
2022/04/04 11:31:27;;;;;;;;;;;6.00;95.90;;;;;;5112342;28;20006;-43
2022/04/04 11:33:54;;;;;;;;;;;5.80;97.20;;;;;;5113832;28;19918;-43
2022/04/04 11:36:22;;;;;;;;;;;5.60;97.70;;;;;;5112623;28;19908;-41
2022/04/04 11:38:50;;;;;;;;;;;5.80;97.60;;;;;;5113778;28;19908;-43
2022/04/04 11:41:16;;;;;;;;;;;6.20;97.70;;;;;;5113971;28;19943;-42
2022/04/04 11:43:47;;;;;;;;;;;6.50;97.30;;;;;;5113930;28;20408;-43
2022/04/04 11:46:14;;;;;;;;;;;6.70;97.30;;;;;;5114122;28;20034;-42
2022/04/04 11:48:47;;;;;;;;;;;6.40;96.20;;;;;;5113724;28;20018;-42
2022/04/04 11:51:13;;;;;;;;;;;6.50;96.80;;;;;;5114148;28;20322;-42
2022/04/04 11:53:39;;;;;;;;;;;6.70;97.80;;;;;;5113758;28;20358;-45
2022/04/04 11:56:10;;;;;;;;;;;7.20;99.50;;;;;;5113917;28;19912;-43
2022/04/04 11:58:46;;;;;;;;;;;7.00;96.90;;;;;;5113870;28;19915;-44
2022/04/04 12:01:11;;;;;;;;;;;6.60;95.90;;;;;;5112315;28;19935;-42
2022/04/04 12:03:43;;;;;;;;;;;6.50;97.00;;;;;;5113547;28;19908;-42
2022/04/04 12:06:08;;;;;;;;;;;6.30;97.10;;;;;;5114025;28;19912;-42
2022/04/04 12:08:42;;;;;;;;;;;6.90;98.20;;;;;;5113154;28;20006;-42
2022/04/04 12:11:09;;;;;;;;;;;7.20;97.80;;;;;;5113641;28;19954;-43
2022/04/04 12:13:46;;;;;;;;;;;7.10;97.10;;;;;;5113364;28;19908;-44
2022/04/04 12:16:12;;;;;;;;;;;7.00;96.90;;;;;;5113446;28;19912;-43
2022/04/04 12:18:37;;;;;;;;;;;6.90;96.90;;;;;;5113568;28;20338;-41
2022/04/04 12:21:03;;;;;;;;;;;7.10;97.90;;;;;;5113747;28;19908;-43
2022/04/04 12:26:14;;;;;;;;;;;7.50;99.60;;;;;;5114028;28;20270;-43
2022/04/04 12:28:41;;;;;;;;;;;7.70;96.70;;;;;;5113421;28;19912;-43
2022/04/04 12:31:14;;;;;;;;;;;7.10;97.10;;;;;;5113898;28;20005;-43
2022/04/04 12:33:40;;;;;;;;;;;7.00;97.70;;;;;;5112447;28;20330;-42
2022/04/04 12:36:05;;;;;;;;;;;7.10;98.30;;;;;;5112322;28;19952;-43
2022/04/04 12:38:35;;;;;;;;;;;6.70;97.90;;;;;;5112281;28;20374;-42
2022/04/04 12:41:15;;;;;;;;;;;6.40;97.80;;;;;;5113381;28;19908;-43
2022/04/04 12:43:42;;;;;;;;;;;6.40;98.80;;;;;;5113529;28;22182;-42
2022/04/04 12:46:21;;;;;;;;;;;6.80;99.40;;;;;;5111666;28;20014;-44
2022/04/04 12:48:46;;;;;;;;;;;7.00;99.20;;;;;;5113208;28;19990;-43
2022/04/04 12:51:24;;;;;;;;;;;7.40;99.10;;;;;;5113093;28;20384;-43
2022/04/04 12:53:52;;;;;;;;;;;7.70;98.80;;;;;;5113186;28;19915;-41
2022/04/04 12:56:18;;;;;;;;;;;7.60;99.00;;;;;;5112896;28;20243;-44
2022/04/04 12:58:44;;;;;;;;;;;8.00;99.90;;;;;;5115606;28;20026;-43
2022/04/04 13:01:10;;;;;;;;;;;8.20;99.90;;;;;;5117136;28;19943;-43
2022/04/04 13:03:45;;;;;;;;;;;7.90;98.80;;;;;;5117126;28;19992;-43
2022/04/04 13:06:11;;;;;;;;;;;7.90;98.50;;;;;;5116830;28;20006;-43
2022/04/04 13:08:36;;;;;;;;;;;8.10;99.90;;;;;;5116639;28;19935;-42
2022/04/04 13:11:10;;;;;;;;;;;8.50;99.70;;;;;;5117102;28;19995;-45
2022/04/04 13:13:56;;;;;;;;;;;8.30;99.30;;;;;;5116694;28;19930;-43
2022/04/04 13:16:48;;;;;;;;;;;8.10;98.10;;;;;;5116197;28;19912;-42
2022/04/04 13:19:14;;;;;;;;;;;7.30;99.50;;;;;;5110859;28;19908;-44
2022/04/04 13:21:41;;;;;;;;;;;7.30;99.90;;;;;;5115432;28;19908;-42
2022/04/04 13:24:07;;;;;;;;;;;7.40;99.50;;;;;;5116124;28;20007;-42
2022/04/04 13:26:33;;;;;;;;;;;7.20;99.30;;;;;;5116300;28;19959;-45
2022/04/04 13:28:58;;;;;;;;;;;7.20;99.30;;;;;;5115075;28;19908;-42
2022/04/04 13:31:24;;;;;;;;;;;7.40;99.50;;;;;;5115017;28;20022;-42
2022/04/04 13:33:50;;;;;;;;;;;7.50;99.30;;;;;;5116254;28;19915;-44
2022/04/04 13:36:16;;;;;;;;;;;7.90;99.90;;;;;;5116389;28;19908;-44
2022/04/04 13:38:42;;;;;;;;;;;8.10;98.80;;;;;;5116533;28;20281;-44
2022/04/04 13:41:08;;;;;;;;;;;7.90;99.90;;;;;;5116018;28;19994;-43
2022/04/04 13:43:34;;;;;;;;;;;7.80;99.30;;;;;;5116043;28;19908;-43
2022/04/04 13:45:59;;;;;;;;;;;8.00;99.60;;;;;;5115955;28;19918;-43
2022/04/04 13:48:25;;;;;;;;;;;8.20;98.90;;;;;;5115847;28;19908;-42
2022/04/04 13:50:51;;;;;;;;;;;8.00;98.70;;;;;;5116304;28;19915;-42
2022/04/04 13:53:16;;;;;;;;;;;7.50;99.30;;;;;;5116268;28;19908;-43
2022/04/04 13:55:42;;;;;;;;;;;7.40;99.90;;;;;;5115717;28;20295;-42
2022/04/04 13:58:08;;;;;;;;;;;7.40;99.20;;;;;;5115963;28;19919;-42
2022/04/04 14:00:36;;;;;;;;;;;7.80;99.90;;;;;;5116118;28;19907;-43
2022/04/04 14:03:03;;;;;;;;;;;7.80;99.10;;;;;;5115819;28;19912;-42
2022/04/04 14:05:28;;;;;;;;;;;7.90;99.90;;;;;;5114463;28;20002;-43
2022/04/04 14:07:55;;;;;;;;;;;7.90;99.10;;;;;;5115370;28;19959;-43
2022/04/04 14:10:21;;;;;;;;;;;7.60;99.50;;;;;;5114256;28;19911;-43
2022/04/04 14:12:46;;;;;;;;;;;7.80;99.90;;;;;;5115348;28;19961;-45
2022/04/04 14:15:12;;;;;;;;;;;7.90;99.90;;;;;;5115571;28;19912;-42
2022/04/04 14:17:38;;;;;;;;;;;7.80;99.50;;;;;;5115794;28;20369;-43
2022/04/04 14:20:05;;;;;;;;;;;7.90;99.00;;;;;;5115137;28;19930;-43
2022/04/04 14:22:30;;;;;;;;;;;8.10;99.90;;;;;;5115393;28;19907;-42
2022/04/04 14:24:57;;;;;;;;;;;8.30;99.90;;;;;;5115560;28;20259;-42
2022/04/04 14:27:26;;;;;;;;;;;8.30;99.70;;;;;;5115502;28;20001;-43
2022/04/04 14:29:52;;;;;;;;;;;8.20;99.20;;;;;;5115336;28;19912;-42
2022/04/04 14:32:18;;;;;;;;;;;8.20;99.40;;;;;;5115466;28;20393;-43
2022/04/04 14:34:44;;;;;;;;;;;8.30;99.90;;;;;;5113972;28;19907;-43